Tenerife / Sur Reina, Spain
Current Conditions -  °F | °C
As of 2:30 AM on Friday 21 Nov 2014 (Local Time) from GCTS Reporting Station
Few Clouds Few Clouds  
Wind Chill: 61°   Ceiling: Unl
Heat Index: 61°   Visibility: 6mi
Dew Point: 52°   Wind: 0mph
Humidity: 72%   Direction: NA
Pressure: 29.62"   Gusts: NA
Location:  28.05°N, 16.57°W
Report Text: GCTS 210230Z 00000KT 9999 FEW030 16/11 Q1003 NOSIG
Loading
Personal Weather Stations






























Interactive Weather Map New forecast layout! Learn more

10-Day Weather Forecast

Advertisements
Track Severe Weather on mobile